sensor_id;sensor_type;location;lat;lon;timestamp;P1;durP1;ratioP1;P2;durP2;ratioP2
61358;SDS011;47228;46.762;23.598;2023-03-26T00:02:03;8.90;;;4.20;;
61358;SDS011;47228;46.762;23.598;2023-03-26T00:04:31;9.10;;;4.20;;
61358;SDS011;47228;46.762;23.598;2023-03-26T00:07:01;14.00;;;4.70;;
61358;SDS011;47228;46.762;23.598;2023-03-26T00:09:29;9.50;;;4.90;;
61358;SDS011;47228;46.762;23.598;2023-03-26T00:11:57;9.80;;;5.20;;
61358;SDS011;47228;46.762;23.598;2023-03-26T00:14:25;10.50;;;5.30;;
61358;SDS011;47228;46.762;23.598;2023-03-26T00:16:55;9.20;;;5.00;;
61358;SDS011;47228;46.762;23.598;2023-03-26T00:19:23;11.10;;;5.30;;
61358;SDS011;47228;46.762;23.598;2023-03-26T00:21:52;9.30;;;4.80;;
61358;SDS011;47228;46.762;23.598;2023-03-26T00:24:20;9.20;;;4.10;;
61358;SDS011;47228;46.762;23.598;2023-03-26T00:26:48;9.20;;;3.90;;
61358;SDS011;47228;46.762;23.598;2023-03-26T00:29:21;7.50;;;4.00;;
61358;SDS011;47228;46.762;23.598;2023-03-26T00:34:22;11.00;;;4.30;;
61358;SDS011;47228;46.762;23.598;2023-03-26T00:36:51;6.60;;;3.60;;
61358;SDS011;47228;46.762;23.598;2023-03-26T00:39:22;9.40;;;3.50;;
61358;SDS011;47228;46.762;23.598;2023-03-26T00:41:52;9.50;;;3.60;;
61358;SDS011;47228;46.762;23.598;2023-03-26T00:44:21;7.40;;;3.70;;
61358;SDS011;47228;46.762;23.598;2023-03-26T00:46:50;8.30;;;3.40;;
61358;SDS011;47228;46.762;23.598;2023-03-26T00:49:17;9.20;;;4.00;;
61358;SDS011;47228;46.762;23.598;2023-03-26T00:51:45;9.30;;;3.50;;
61358;SDS011;47228;46.762;23.598;2023-03-26T00:54:13;7.70;;;4.10;;
61358;SDS011;47228;46.762;23.598;2023-03-26T00:56:42;8.00;;;3.40;;
61358;SDS011;47228;46.762;23.598;2023-03-26T00:59:10;13.70;;;3.60;;
61358;SDS011;47228;46.762;23.598;2023-03-26T01:01:38;9.50;;;3.40;;
61358;SDS011;47228;46.762;23.598;2023-03-26T01:04:19;11.10;;;3.50;;
61358;SDS011;47228;46.762;23.598;2023-03-26T01:06:59;9.70;;;3.50;;
61358;SDS011;47228;46.762;23.598;2023-03-26T01:09:31;10.80;;;3.70;;
61358;SDS011;47228;46.762;23.598;2023-03-26T01:12:03;9.00;;;3.40;;
61358;SDS011;47228;46.762;23.598;2023-03-26T01:14:34;10.90;;;3.70;;
61358;SDS011;47228;46.762;23.598;2023-03-26T01:17:03;9.40;;;3.50;;
61358;SDS011;47228;46.762;23.598;2023-03-26T01:22:21;8.60;;;3.70;;
61358;SDS011;47228;46.762;23.598;2023-03-26T01:24:52;7.30;;;3.30;;
61358;SDS011;47228;46.762;23.598;2023-03-26T01:30:11;9.30;;;3.80;;
61358;SDS011;47228;46.762;23.598;2023-03-26T01:35:51;12.50;;;3.80;;
61358;SDS011;47228;46.762;23.598;2023-03-26T01:38:40;8.20;;;4.20;;
61358;SDS011;47228;46.762;23.598;2023-03-26T01:44:22;9.70;;;4.20;;
61358;SDS011;47228;46.762;23.598;2023-03-26T01:46:59;11.40;;;4.40;;
61358;SDS011;47228;46.762;23.598;2023-03-26T01:49:31;9.10;;;3.40;;
61358;SDS011;47228;46.762;23.598;2023-03-26T01:51:59;9.60;;;3.90;;
61358;SDS011;47228;46.762;23.598;2023-03-26T01:54:27;9.90;;;3.90;;
61358;SDS011;47228;46.762;23.598;2023-03-26T02:08:02;8.40;;;3.90;;
61358;SDS011;47228;46.762;23.598;2023-03-26T02:10:39;7.70;;;3.80;;
61358;SDS011;47228;46.762;23.598;2023-03-26T02:13:10;11.20;;;4.50;;
61358;SDS011;47228;46.762;23.598;2023-03-26T02:15:39;10.40;;;3.70;;
61358;SDS011;47228;46.762;23.598;2023-03-26T02:18:08;11.00;;;4.10;;
61358;SDS011;47228;46.762;23.598;2023-03-26T02:20:40;10.60;;;4.70;;
61358;SDS011;47228;46.762;23.598;2023-03-26T02:23:08;9.40;;;4.10;;
61358;SDS011;47228;46.762;23.598;2023-03-26T02:25:36;10.60;;;4.40;;
61358;SDS011;47228;46.762;23.598;2023-03-26T02:28:06;8.20;;;3.80;;
61358;SDS011;47228;46.762;23.598;2023-03-26T02:30:34;8.50;;;3.70;;
61358;SDS011;47228;46.762;23.598;2023-03-26T02:33:02;10.50;;;3.80;;
61358;SDS011;47228;46.762;23.598;2023-03-26T02:35:30;11.00;;;4.20;;
61358;SDS011;47228;46.762;23.598;2023-03-26T02:37:58;8.70;;;4.10;;
61358;SDS011;47228;46.762;23.598;2023-03-26T02:40:26;10.40;;;4.10;;
61358;SDS011;47228;46.762;23.598;2023-03-26T02:42:54;8.90;;;3.70;;
61358;SDS011;47228;46.762;23.598;2023-03-26T02:45:22;8.40;;;4.10;;
61358;SDS011;47228;46.762;23.598;2023-03-26T02:47:50;8.50;;;3.90;;
61358;SDS011;47228;46.762;23.598;2023-03-26T02:50:18;10.20;;;4.40;;
61358;SDS011;47228;46.762;23.598;2023-03-26T02:52:46;17.80;;;4.40;;
61358;SDS011;47228;46.762;23.598;2023-03-26T02:55:16;12.50;;;4.90;;
61358;SDS011;47228;46.762;23.598;2023-03-26T02:57:44;9.90;;;4.10;;
61358;SDS011;47228;46.762;23.598;2023-03-26T03:00:12;11.00;;;4.40;;
61358;SDS011;47228;46.762;23.598;2023-03-26T03:02:40;10.20;;;4.50;;
61358;SDS011;47228;46.762;23.598;2023-03-26T03:05:11;11.30;;;4.50;;
61358;SDS011;47228;46.762;23.598;2023-03-26T03:07:39;8.90;;;4.20;;
61358;SDS011;47228;46.762;23.598;2023-03-26T03:10:07;9.70;;;3.90;;
61358;SDS011;47228;46.762;23.598;2023-03-26T03:12:36;11.80;;;4.10;;
61358;SDS011;47228;46.762;23.598;2023-03-26T03:15:04;13.50;;;4.70;;
61358;SDS011;47228;46.762;23.598;2023-03-26T03:17:33;10.00;;;4.40;;
61358;SDS011;47228;46.762;23.598;2023-03-26T03:20:02;9.80;;;4.40;;
61358;SDS011;47228;46.762;23.598;2023-03-26T03:22:30;9.10;;;4.70;;
61358;SDS011;47228;46.762;23.598;2023-03-26T03:25:00;9.80;;;5.20;;
61358;SDS011;47228;46.762;23.598;2023-03-26T03:27:28;11.60;;;4.90;;
61358;SDS011;47228;46.762;23.598;2023-03-26T03:29:57;13.50;;;6.00;;
61358;SDS011;47228;46.762;23.598;2023-03-26T03:32:25;12.20;;;5.50;;
61358;SDS011;47228;46.762;23.598;2023-03-26T03:34:54;12.10;;;5.50;;
61358;SDS011;47228;46.762;23.598;2023-03-26T03:37:22;12.30;;;5.70;;
61358;SDS011;47228;46.762;23.598;2023-03-26T03:39:51;15.00;;;7.30;;
61358;SDS011;47228;46.762;23.598;2023-03-26T03:42:19;12.20;;;6.70;;
61358;SDS011;47228;46.762;23.598;2023-03-26T03:44:47;10.10;;;5.90;;
61358;SDS011;47228;46.762;23.598;2023-03-26T03:47:15;13.60;;;5.50;;
61358;SDS011;47228;46.762;23.598;2023-03-26T03:49:43;15.20;;;5.40;;
61358;SDS011;47228;46.762;23.598;2023-03-26T03:52:10;10.70;;;5.10;;
61358;SDS011;47228;46.762;23.598;2023-03-26T03:54:38;12.00;;;5.20;;
61358;SDS011;47228;46.762;23.598;2023-03-26T03:57:06;15.30;;;4.90;;
61358;SDS011;47228;46.762;23.598;2023-03-26T03:59:34;12.50;;;5.50;;
61358;SDS011;47228;46.762;23.598;2023-03-26T04:02:02;11.70;;;5.70;;
61358;SDS011;47228;46.762;23.598;2023-03-26T04:04:30;11.60;;;5.40;;
61358;SDS011;47228;46.762;23.598;2023-03-26T04:06:59;13.00;;;5.30;;
61358;SDS011;47228;46.762;23.598;2023-03-26T04:09:27;13.10;;;4.90;;
61358;SDS011;47228;46.762;23.598;2023-03-26T04:11:55;10.70;;;5.70;;
61358;SDS011;47228;46.762;23.598;2023-03-26T04:14:23;10.40;;;4.50;;
61358;SDS011;47228;46.762;23.598;2023-03-26T04:16:51;11.50;;;5.60;;
61358;SDS011;47228;46.762;23.598;2023-03-26T04:19:19;10.90;;;4.90;;
61358;SDS011;47228;46.762;23.598;2023-03-26T04:21:47;10.10;;;5.10;;
61358;SDS011;47228;46.762;23.598;2023-03-26T04:24:16;11.80;;;5.00;;
61358;SDS011;47228;46.762;23.598;2023-03-26T04:26:43;15.30;;;5.90;;
61358;SDS011;47228;46.762;23.598;2023-03-26T04:29:14;9.80;;;4.50;;
61358;SDS011;47228;46.762;23.598;2023-03-26T04:31:44;16.10;;;6.50;;
61358;SDS011;47228;46.762;23.598;2023-03-26T04:34:17;11.80;;;5.80;;
61358;SDS011;47228;46.762;23.598;2023-03-26T04:36:51;12.30;;;5.70;;
61358;SDS011;47228;46.762;23.598;2023-03-26T04:39:22;14.40;;;6.00;;
61358;SDS011;47228;46.762;23.598;2023-03-26T04:41:55;13.60;;;5.70;;
61358;SDS011;47228;46.762;23.598;2023-03-26T04:44:24;9.50;;;5.20;;
61358;SDS011;47228;46.762;23.598;2023-03-26T04:46:53;12.20;;;5.30;;
61358;SDS011;47228;46.762;23.598;2023-03-26T04:49:21;12.20;;;5.70;;
61358;SDS011;47228;46.762;23.598;2023-03-26T04:51:49;13.00;;;4.90;;
61358;SDS011;47228;46.762;23.598;2023-03-26T04:54:18;14.50;;;6.20;;
61358;SDS011;47228;46.762;23.598;2023-03-26T04:56:53;12.40;;;5.60;;
61358;SDS011;47228;46.762;23.598;2023-03-26T04:59:25;12.10;;;5.30;;
61358;SDS011;47228;46.762;23.598;2023-03-26T05:01:57;12.30;;;5.40;;
61358;SDS011;47228;46.762;23.598;2023-03-26T05:04:27;11.70;;;5.00;;
61358;SDS011;47228;46.762;23.598;2023-03-26T05:07:03;14.10;;;5.40;;
61358;SDS011;47228;46.762;23.598;2023-03-26T05:09:31;11.90;;;5.20;;
61358;SDS011;47228;46.762;23.598;2023-03-26T05:11:59;11.60;;;5.00;;
61358;SDS011;47228;46.762;23.598;2023-03-26T05:14:28;9.10;;;5.20;;
61358;SDS011;47228;46.762;23.598;2023-03-26T05:16:55;9.30;;;4.90;;
61358;SDS011;47228;46.762;23.598;2023-03-26T05:19:24;10.90;;;6.00;;
61358;SDS011;47228;46.762;23.598;2023-03-26T05:21:51;11.70;;;5.10;;
61358;SDS011;47228;46.762;23.598;2023-03-26T05:24:19;12.70;;;5.70;;
61358;SDS011;47228;46.762;23.598;2023-03-26T05:26:47;12.40;;;6.00;;
61358;SDS011;47228;46.762;23.598;2023-03-26T05:29:15;14.40;;;5.90;;
61358;SDS011;47228;46.762;23.598;2023-03-26T05:31:44;15.70;;;5.80;;
61358;SDS011;47228;46.762;23.598;2023-03-26T05:34:12;9.40;;;4.80;;
61358;SDS011;47228;46.762;23.598;2023-03-26T05:36:40;12.00;;;4.90;;
61358;SDS011;47228;46.762;23.598;2023-03-26T05:39:09;11.90;;;4.80;;
61358;SDS011;47228;46.762;23.598;2023-03-26T05:41:37;12.60;;;4.90;;
61358;SDS011;47228;46.762;23.598;2023-03-26T05:44:05;11.40;;;4.80;;
61358;SDS011;47228;46.762;23.598;2023-03-26T05:46:33;9.90;;;4.80;;
61358;SDS011;47228;46.762;23.598;2023-03-26T05:49:01;9.00;;;4.40;;
61358;SDS011;47228;46.762;23.598;2023-03-26T05:51:29;11.60;;;5.00;;
61358;SDS011;47228;46.762;23.598;2023-03-26T05:53:57;11.90;;;4.70;;
61358;SDS011;47228;46.762;23.598;2023-03-26T05:56:25;10.30;;;4.90;;
61358;SDS011;47228;46.762;23.598;2023-03-26T05:58:55;8.80;;;4.80;;
61358;SDS011;47228;46.762;23.598;2023-03-26T06:01:23;9.50;;;5.00;;
61358;SDS011;47228;46.762;23.598;2023-03-26T06:03:52;9.70;;;4.70;;
61358;SDS011;47228;46.762;23.598;2023-03-26T06:06:20;12.30;;;4.20;;
61358;SDS011;47228;46.762;23.598;2023-03-26T06:08:49;8.00;;;4.00;;
61358;SDS011;47228;46.762;23.598;2023-03-26T06:11:29;8.80;;;4.40;;
61358;SDS011;47228;46.762;23.598;2023-03-26T06:13:59;7.60;;;4.10;;
61358;SDS011;47228;46.762;23.598;2023-03-26T06:16:27;7.70;;;3.80;;
61358;SDS011;47228;46.762;23.598;2023-03-26T06:18:55;7.00;;;3.80;;
61358;SDS011;47228;46.762;23.598;2023-03-26T06:21:24;9.10;;;3.90;;
61358;SDS011;47228;46.762;23.598;2023-03-26T06:23:53;9.60;;;4.50;;
61358;SDS011;47228;46.762;23.598;2023-03-26T06:26:21;7.60;;;4.00;;
61358;SDS011;47228;46.762;23.598;2023-03-26T06:28:50;8.10;;;3.60;;
61358;SDS011;47228;46.762;23.598;2023-03-26T06:31:18;7.70;;;3.90;;
61358;SDS011;47228;46.762;23.598;2023-03-26T06:33:46;8.00;;;3.60;;
61358;SDS011;47228;46.762;23.598;2023-03-26T06:36:15;7.50;;;4.00;;
61358;SDS011;47228;46.762;23.598;2023-03-26T06:38:43;7.00;;;3.40;;
61358;SDS011;47228;46.762;23.598;2023-03-26T06:41:11;9.60;;;4.10;;
61358;SDS011;47228;46.762;23.598;2023-03-26T06:43:39;8.30;;;4.00;;
61358;SDS011;47228;46.762;23.598;2023-03-26T06:46:07;8.40;;;3.80;;
61358;SDS011;47228;46.762;23.598;2023-03-26T06:48:35;9.50;;;4.20;;
61358;SDS011;47228;46.762;23.598;2023-03-26T06:51:04;7.70;;;3.60;;
61358;SDS011;47228;46.762;23.598;2023-03-26T06:53:32;9.20;;;4.10;;
61358;SDS011;47228;46.762;23.598;2023-03-26T06:56:00;7.90;;;3.70;;
61358;SDS011;47228;46.762;23.598;2023-03-26T06:58:29;9.60;;;3.80;;
61358;SDS011;47228;46.762;23.598;2023-03-26T07:00:57;8.20;;;3.60;;
61358;SDS011;47228;46.762;23.598;2023-03-26T07:03:26;7.20;;;3.70;;
61358;SDS011;47228;46.762;23.598;2023-03-26T07:05:54;10.50;;;4.30;;
61358;SDS011;47228;46.762;23.598;2023-03-26T07:08:22;8.60;;;3.60;;
61358;SDS011;47228;46.762;23.598;2023-03-26T07:10:53;5.90;;;3.00;;
61358;SDS011;47228;46.762;23.598;2023-03-26T07:13:21;7.50;;;3.10;;
61358;SDS011;47228;46.762;23.598;2023-03-26T07:15:49;7.30;;;3.20;;
61358;SDS011;47228;46.762;23.598;2023-03-26T07:18:17;4.60;;;3.00;;
61358;SDS011;47228;46.762;23.598;2023-03-26T07:20:45;6.20;;;2.90;;
61358;SDS011;47228;46.762;23.598;2023-03-26T07:23:13;5.10;;;2.80;;
61358;SDS011;47228;46.762;23.598;2023-03-26T07:25:42;4.90;;;2.70;;
61358;SDS011;47228;46.762;23.598;2023-03-26T07:28:30;7.90;;;3.20;;
61358;SDS011;47228;46.762;23.598;2023-03-26T07:31:09;8.60;;;3.20;;
61358;SDS011;47228;46.762;23.598;2023-03-26T07:36:45;6.10;;;3.40;;
61358;SDS011;47228;46.762;23.598;2023-03-26T07:39:49;7.30;;;2.60;;
61358;SDS011;47228;46.762;23.598;2023-03-26T07:42:27;9.70;;;3.00;;
61358;SDS011;47228;46.762;23.598;2023-03-26T07:47:49;7.00;;;3.40;;
61358;SDS011;47228;46.762;23.598;2023-03-26T07:50:21;6.10;;;3.50;;
61358;SDS011;47228;46.762;23.598;2023-03-26T07:52:50;9.90;;;4.30;;
61358;SDS011;47228;46.762;23.598;2023-03-26T07:55:23;8.80;;;4.70;;
61358;SDS011;47228;46.762;23.598;2023-03-26T08:00:36;10.20;;;4.30;;
61358;SDS011;47228;46.762;23.598;2023-03-26T08:22:01;6.60;;;2.70;;
61358;SDS011;47228;46.762;23.598;2023-03-26T08:28:03;4.80;;;3.10;;
61358;SDS011;47228;46.762;23.598;2023-03-26T08:30:48;5.30;;;3.00;;
61358;SDS011;47228;46.762;23.598;2023-03-26T08:33:17;8.60;;;4.30;;
61358;SDS011;47228;46.762;23.598;2023-03-26T08:35:47;9.50;;;4.80;;
61358;SDS011;47228;46.762;23.598;2023-03-26T08:38:17;20.00;;;5.40;;
61358;SDS011;47228;46.762;23.598;2023-03-26T08:58:24;4.10;;;1.90;;
61358;SDS011;47228;46.762;23.598;2023-03-26T09:18:57;2.50;;;1.60;;
61358;SDS011;47228;46.762;23.598;2023-03-26T09:40:52;5.70;;;2.20;;
61358;SDS011;47228;46.762;23.598;2023-03-26T09:46:14;4.10;;;2.10;;
61358;SDS011;47228;46.762;23.598;2023-03-26T09:54:34;8.10;;;4.30;;
61358;SDS011;47228;46.762;23.598;2023-03-26T10:02:34;12.30;;;5.00;;
61358;SDS011;47228;46.762;23.598;2023-03-26T10:08:00;9.20;;;3.60;;
61358;SDS011;47228;46.762;23.598;2023-03-26T10:10:34;4.30;;;2.40;;
61358;SDS011;47228;46.762;23.598;2023-03-26T10:18:58;8.70;;;2.40;;
61358;SDS011;47228;46.762;23.598;2023-03-26T10:21:49;6.60;;;2.20;;
61358;SDS011;47228;46.762;23.598;2023-03-26T10:29:46;4.70;;;2.30;;
61358;SDS011;47228;46.762;23.598;2023-03-26T10:40:57;5.30;;;2.20;;
61358;SDS011;47228;46.762;23.598;2023-03-26T10:46:40;6.60;;;2.90;;
61358;SDS011;47228;46.762;23.598;2023-03-26T10:52:08;7.20;;;2.70;;
61358;SDS011;47228;46.762;23.598;2023-03-26T10:57:44;8.80;;;3.90;;
61358;SDS011;47228;46.762;23.598;2023-03-26T11:00:20;10.30;;;4.20;;
61358;SDS011;47228;46.762;23.598;2023-03-26T11:05:50;6.40;;;2.50;;
61358;SDS011;47228;46.762;23.598;2023-03-26T11:13:52;7.00;;;2.70;;
61358;SDS011;47228;46.762;23.598;2023-03-26T11:19:10;7.80;;;2.30;;
61358;SDS011;47228;46.762;23.598;2023-03-26T11:21:51;3.00;;;1.40;;
61358;SDS011;47228;46.762;23.598;2023-03-26T11:27:26;4.60;;;1.90;;
61358;SDS011;47228;46.762;23.598;2023-03-26T11:33:01;4.10;;;1.70;;
61358;SDS011;47228;46.762;23.598;2023-03-26T11:35:37;4.70;;;1.70;;
61358;SDS011;47228;46.762;23.598;2023-03-26T11:40:55;3.70;;;1.30;;
61358;SDS011;47228;46.762;23.598;2023-03-26T11:43:30;3.50;;;1.50;;
61358;SDS011;47228;46.762;23.598;2023-03-26T11:46:02;5.40;;;1.70;;
61358;SDS011;47228;46.762;23.598;2023-03-26T11:48:37;4.40;;;1.40;;
61358;SDS011;47228;46.762;23.598;2023-03-26T11:53:37;6.20;;;1.80;;
61358;SDS011;47228;46.762;23.598;2023-03-26T11:58:54;5.80;;;1.90;;
61358;SDS011;47228;46.762;23.598;2023-03-26T12:04:18;5.00;;;1.20;;
61358;SDS011;47228;46.762;23.598;2023-03-26T12:06:53;5.10;;;2.00;;
61358;SDS011;47228;46.762;23.598;2023-03-26T12:09:24;3.20;;;1.30;;
61358;SDS011;47228;46.762;23.598;2023-03-26T12:11:55;3.00;;;1.40;;
61358;SDS011;47228;46.762;23.598;2023-03-26T12:14:28;4.90;;;1.40;;
61358;SDS011;47228;46.762;23.598;2023-03-26T12:17:01;4.70;;;1.50;;
61358;SDS011;47228;46.762;23.598;2023-03-26T12:19:36;2.40;;;1.20;;
61358;SDS011;47228;46.762;23.598;2023-03-26T12:22:29;3.00;;;1.40;;
61358;SDS011;47228;46.762;23.598;2023-03-26T12:25:01;2.10;;;1.20;;
61358;SDS011;47228;46.762;23.598;2023-03-26T12:30:35;3.70;;;1.50;;
61358;SDS011;47228;46.762;23.598;2023-03-26T12:33:27;4.60;;;1.30;;
61358;SDS011;47228;46.762;23.598;2023-03-26T12:36:16;4.90;;;1.60;;
61358;SDS011;47228;46.762;23.598;2023-03-26T12:38:49;4.60;;;1.40;;
61358;SDS011;47228;46.762;23.598;2023-03-26T12:41:38;4.30;;;1.30;;
61358;SDS011;47228;46.762;23.598;2023-03-26T12:44:29;3.50;;;1.60;;
61358;SDS011;47228;46.762;23.598;2023-03-26T12:47:24;1.90;;;1.30;;
61358;SDS011;47228;46.762;23.598;2023-03-26T12:50:16;3.60;;;1.50;;
61358;SDS011;47228;46.762;23.598;2023-03-26T12:53:04;4.10;;;1.40;;
61358;SDS011;47228;46.762;23.598;2023-03-26T12:55:47;3.60;;;1.30;;
61358;SDS011;47228;46.762;23.598;2023-03-26T13:07:19;4.70;;;1.40;;
61358;SDS011;47228;46.762;23.598;2023-03-26T13:15:49;3.10;;;1.10;;
61358;SDS011;47228;46.762;23.598;2023-03-26T13:18:41;3.20;;;1.60;;
61358;SDS011;47228;46.762;23.598;2023-03-26T13:21:22;4.10;;;1.10;;
61358;SDS011;47228;46.762;23.598;2023-03-26T13:32:38;2.00;;;1.30;;
61358;SDS011;47228;46.762;23.598;2023-03-26T13:35:27;1.70;;;1.20;;
61358;SDS011;47228;46.762;23.598;2023-03-26T13:51:42;4.00;;;1.20;;
61358;SDS011;47228;46.762;23.598;2023-03-26T13:57:17;3.00;;;1.30;;
61358;SDS011;47228;46.762;23.598;2023-03-26T14:00:14;2.70;;;1.40;;
61358;SDS011;47228;46.762;23.598;2023-03-26T14:02:51;2.00;;;1.20;;
61358;SDS011;47228;46.762;23.598;2023-03-26T14:05:41;3.20;;;1.30;;
61358;SDS011;47228;46.762;23.598;2023-03-26T14:11:12;3.70;;;1.70;;
61358;SDS011;47228;46.762;23.598;2023-03-26T14:13:53;8.90;;;2.30;;
61358;SDS011;47228;46.762;23.598;2023-03-26T14:16:28;3.10;;;1.50;;
61358;SDS011;47228;46.762;23.598;2023-03-26T14:33:49;2.80;;;1.50;;
61358;SDS011;47228;46.762;23.598;2023-03-26T14:42:36;2.90;;;1.70;;
61358;SDS011;47228;46.762;23.598;2023-03-26T14:54:09;4.70;;;1.50;;
61358;SDS011;47228;46.762;23.598;2023-03-26T15:03:14;2.00;;;1.20;;
61358;SDS011;47228;46.762;23.598;2023-03-26T15:17:53;4.70;;;1.70;;
61358;SDS011;47228;46.762;23.598;2023-03-26T15:32:10;7.00;;;2.00;;
61358;SDS011;47228;46.762;23.598;2023-03-26T15:40:39;5.70;;;1.40;;
61358;SDS011;47228;46.762;23.598;2023-03-26T15:43:21;2.70;;;1.40;;
61358;SDS011;47228;46.762;23.598;2023-03-26T15:49:25;3.30;;;1.70;;
61358;SDS011;47228;46.762;23.598;2023-03-26T15:51:44;2.60;;;1.40;;
61358;SDS011;47228;46.762;23.598;2023-03-26T15:54:16;5.50;;;1.70;;
61358;SDS011;47228;46.762;23.598;2023-03-26T16:17:17;11.30;;;2.10;;
61358;SDS011;47228;46.762;23.598;2023-03-26T16:20:30;4.70;;;2.10;;
61358;SDS011;47228;46.762;23.598;2023-03-26T16:23:00;5.00;;;2.00;;
61358;SDS011;47228;46.762;23.598;2023-03-26T16:25:33;4.60;;;2.00;;
61358;SDS011;47228;46.762;23.598;2023-03-26T16:28:27;7.50;;;2.50;;
61358;SDS011;47228;46.762;23.598;2023-03-26T16:36:41;8.20;;;2.60;;
61358;SDS011;47228;46.762;23.598;2023-03-26T16:39:15;6.00;;;2.60;;
61358;SDS011;47228;46.762;23.598;2023-03-26T16:50:40;9.80;;;4.00;;
61358;SDS011;47228;46.762;23.598;2023-03-26T16:53:31;9.30;;;4.30;;
61358;SDS011;47228;46.762;23.598;2023-03-26T16:56:15;10.20;;;4.20;;
61358;SDS011;47228;46.762;23.598;2023-03-26T16:58:55;9.30;;;3.60;;
61358;SDS011;47228;46.762;23.598;2023-03-26T17:01:38;8.90;;;4.20;;
61358;SDS011;47228;46.762;23.598;2023-03-26T17:06:51;8.80;;;3.70;;
61358;SDS011;47228;46.762;23.598;2023-03-26T17:21:08;11.50;;;5.60;;
61358;SDS011;47228;46.762;23.598;2023-03-26T17:32:18;6.90;;;3.20;;
61358;SDS011;47228;46.762;23.598;2023-03-26T17:34:53;8.10;;;3.60;;
61358;SDS011;47228;46.762;23.598;2023-03-26T17:40:25;5.20;;;3.10;;
61358;SDS011;47228;46.762;23.598;2023-03-26T17:46:35;8.00;;;3.90;;
61358;SDS011;47228;46.762;23.598;2023-03-26T17:51:45;7.50;;;3.70;;
61358;SDS011;47228;46.762;23.598;2023-03-26T17:57:02;8.50;;;3.50;;
61358;SDS011;47228;46.762;23.598;2023-03-26T17:59:37;10.40;;;4.40;;
61358;SDS011;47228;46.762;23.598;2023-03-26T18:02:11;11.80;;;4.60;;
61358;SDS011;47228;46.762;23.598;2023-03-26T18:04:43;10.60;;;4.20;;
61358;SDS011;47228;46.762;23.598;2023-03-26T18:16:10;9.30;;;4.90;;
61358;SDS011;47228;46.762;23.598;2023-03-26T18:18:45;11.50;;;4.60;;
61358;SDS011;47228;46.762;23.598;2023-03-26T18:21:34;10.80;;;4.40;;
61358;SDS011;47228;46.762;23.598;2023-03-26T18:24:07;10.30;;;5.00;;
61358;SDS011;47228;46.762;23.598;2023-03-26T18:26:51;12.00;;;5.90;;
61358;SDS011;47228;46.762;23.598;2023-03-26T18:29:24;15.50;;;6.20;;
61358;SDS011;47228;46.762;23.598;2023-03-26T18:34:25;15.40;;;7.00;;
61358;SDS011;47228;46.762;23.598;2023-03-26T18:42:24;13.50;;;6.00;;
61358;SDS011;47228;46.762;23.598;2023-03-26T18:44:55;16.00;;;7.40;;
61358;SDS011;47228;46.762;23.598;2023-03-26T18:47:29;15.00;;;6.70;;
61358;SDS011;47228;46.762;23.598;2023-03-26T18:49:58;16.00;;;6.60;;
61358;SDS011;47228;46.762;23.598;2023-03-26T18:52:27;16.80;;;7.30;;
61358;SDS011;47228;46.762;23.598;2023-03-26T18:54:58;14.00;;;6.90;;
61358;SDS011;47228;46.762;23.598;2023-03-26T18:57:28;17.80;;;7.00;;
61358;SDS011;47228;46.762;23.598;2023-03-26T19:00:02;15.00;;;7.50;;
61358;SDS011;47228;46.762;23.598;2023-03-26T19:02:42;15.00;;;7.90;;
61358;SDS011;47228;46.762;23.598;2023-03-26T19:05:12;14.70;;;8.00;;
61358;SDS011;47228;46.762;23.598;2023-03-26T19:07:42;14.60;;;7.40;;
61358;SDS011;47228;46.762;23.598;2023-03-26T19:10:13;17.80;;;8.00;;
61358;SDS011;47228;46.762;23.598;2023-03-26T19:12:45;17.60;;;8.20;;
61358;SDS011;47228;46.762;23.598;2023-03-26T19:15:23;17.30;;;8.40;;
61358;SDS011;47228;46.762;23.598;2023-03-26T19:17:55;17.80;;;8.70;;
61358;SDS011;47228;46.762;23.598;2023-03-26T19:20:32;20.10;;;8.90;;
61358;SDS011;47228;46.762;23.598;2023-03-26T19:23:06;20.30;;;9.60;;
61358;SDS011;47228;46.762;23.598;2023-03-26T19:25:40;23.00;;;9.00;;
61358;SDS011;47228;46.762;23.598;2023-03-26T19:28:21;20.70;;;10.80;;
61358;SDS011;47228;46.762;23.598;2023-03-26T19:30:53;24.10;;;10.30;;
61358;SDS011;47228;46.762;23.598;2023-03-26T19:33:31;18.60;;;9.90;;
61358;SDS011;47228;46.762;23.598;2023-03-26T19:36:14;22.80;;;11.30;;
61358;SDS011;47228;46.762;23.598;2023-03-26T19:41:29;28.10;;;11.90;;
61358;SDS011;47228;46.762;23.598;2023-03-26T19:43:59;21.00;;;12.00;;
61358;SDS011;47228;46.762;23.598;2023-03-26T19:46:31;23.40;;;12.80;;
61358;SDS011;47228;46.762;23.598;2023-03-26T19:52:03;25.10;;;12.70;;
61358;SDS011;47228;46.762;23.598;2023-03-26T19:57:30;24.40;;;12.20;;
61358;SDS011;47228;46.762;23.598;2023-03-26T19:59:59;28.80;;;13.40;;
61358;SDS011;47228;46.762;23.598;2023-03-26T20:02:27;23.30;;;11.90;;
61358;SDS011;47228;46.762;23.598;2023-03-26T20:04:55;22.00;;;11.20;;
61358;SDS011;47228;46.762;23.598;2023-03-26T20:07:24;23.00;;;9.90;;
61358;SDS011;47228;46.762;23.598;2023-03-26T20:10:03;20.70;;;10.10;;
61358;SDS011;47228;46.762;23.598;2023-03-26T20:12:32;20.30;;;9.30;;
61358;SDS011;47228;46.762;23.598;2023-03-26T20:15:00;20.90;;;10.10;;
61358;SDS011;47228;46.762;23.598;2023-03-26T20:17:29;18.90;;;9.90;;
61358;SDS011;47228;46.762;23.598;2023-03-26T20:19:57;19.60;;;9.80;;
61358;SDS011;47228;46.762;23.598;2023-03-26T20:22:26;20.50;;;10.40;;
61358;SDS011;47228;46.762;23.598;2023-03-26T20:24:54;20.70;;;10.70;;
61358;SDS011;47228;46.762;23.598;2023-03-26T20:27:22;25.70;;;10.40;;
61358;SDS011;47228;46.762;23.598;2023-03-26T20:29:50;21.10;;;10.80;;
61358;SDS011;47228;46.762;23.598;2023-03-26T20:32:21;21.70;;;10.70;;
61358;SDS011;47228;46.762;23.598;2023-03-26T20:34:53;19.60;;;10.90;;
61358;SDS011;47228;46.762;23.598;2023-03-26T20:37:21;23.90;;;10.80;;
61358;SDS011;47228;46.762;23.598;2023-03-26T20:39:49;21.10;;;10.30;;
61358;SDS011;47228;46.762;23.598;2023-03-26T20:42:17;23.90;;;11.00;;
61358;SDS011;47228;46.762;23.598;2023-03-26T20:44:45;24.60;;;12.10;;
61358;SDS011;47228;46.762;23.598;2023-03-26T20:47:13;24.70;;;11.60;;
61358;SDS011;47228;46.762;23.598;2023-03-26T20:49:41;21.40;;;11.60;;
61358;SDS011;47228;46.762;23.598;2023-03-26T20:52:10;26.60;;;12.70;;
61358;SDS011;47228;46.762;23.598;2023-03-26T20:54:40;24.90;;;12.60;;
61358;SDS011;47228;46.762;23.598;2023-03-26T20:57:09;23.30;;;11.60;;
61358;SDS011;47228;46.762;23.598;2023-03-26T20:59:40;22.70;;;10.90;;
61358;SDS011;47228;46.762;23.598;2023-03-26T21:02:08;21.80;;;10.90;;
61358;SDS011;47228;46.762;23.598;2023-03-26T21:04:38;23.90;;;11.90;;
61358;SDS011;47228;46.762;23.598;2023-03-26T21:07:06;21.50;;;11.00;;
61358;SDS011;47228;46.762;23.598;2023-03-26T21:09:45;22.70;;;11.60;;
61358;SDS011;47228;46.762;23.598;2023-03-26T21:12:16;19.80;;;10.50;;
61358;SDS011;47228;46.762;23.598;2023-03-26T21:14:54;23.00;;;11.00;;
61358;SDS011;47228;46.762;23.598;2023-03-26T21:17:23;20.90;;;11.20;;
61358;SDS011;47228;46.762;23.598;2023-03-26T21:19:51;24.30;;;11.90;;
61358;SDS011;47228;46.762;23.598;2023-03-26T21:22:29;23.20;;;12.90;;
61358;SDS011;47228;46.762;23.598;2023-03-26T21:30:27;27.50;;;12.70;;
61358;SDS011;47228;46.762;23.598;2023-03-26T21:32:55;23.10;;;11.70;;
61358;SDS011;47228;46.762;23.598;2023-03-26T21:35:23;26.90;;;12.50;;
61358;SDS011;47228;46.762;23.598;2023-03-26T21:37:51;27.30;;;12.00;;